^^
Saratoga-Weather Station Historical Data
Daily Summary for May 31, 2021 Units:  English    Metric   Both
Daily Weekly Monthly Yearly Custom
  High: Low: Average:
Temperature: 71.4 °F 55.9 °F 63 °F
Dew Point: 58.1 °F 52 °F 55 °F
Humidity: 94% 54% 77%
Wind Speed: 6.9mph 0mph 1.4mph
Wind Gust: 13mph - -
Wind- - SSE
Pressure: 30.3 in 30.1 in -
Precipitation: 0 in    
Historical Graphs
 
 
Tabular Data for May 31, 2021
Time Temperature Dew Point Pressure Wind Wind Speed Wind Gust Humidity Rainfall Rate (Hourly) solar
00:01 59.9 °F 56.3 °F 30.1 in Calm   2 mph 88% 0 in 0 W/m2
00:06 59.7 °F 56.5 °F 30.1 in Calm   1 mph 89% 0 in 0 W/m2
00:11 59.5 °F 56.3 °F 30.1 in Calm     89% 0 in 0 W/m2
00:16 59.5 °F 56.3 °F 30.1 in Calm   1 mph 89% 0 in 0 W/m2
00:21 59.5 °F 56.3 °F 30.1 in Calm     89% 0 in 0 W/m2
00:26 59.4 °F 56.5 °F 30.1 in Calm     90% 0 in 0 W/m2
00:31 59.4 °F 56.5 °F 30.1 in Calm     90% 0 in 0 W/m2
00:36 59.2 °F 56.3 °F 30.1 in Calm     90% 0 in 0 W/m2
00:41 59.2 °F 56.5 °F 30.1 in Calm     91% 0 in 0 W/m2
00:46 59.2 °F 56.5 °F 30.1 in Calm     91% 0 in 0 W/m2
00:51 59.2 °F 56.5 °F 30.1 in Calm     91% 0 in 0 W/m2
00:56 59.2 °F 56.5 °F 30.1 in Calm     91% 0 in 0 W/m2
01:01 59 °F 56.3 °F 30.1 in Calm     91% 0 in 0 W/m2
01:06 58.8 °F 56.1 °F 30.1 in Calm     91% 0 in 0 W/m2
01:11 58.6 °F 55.9 °F 30.1 in Calm     91% 0 in 0 W/m2
01:16 58.6 °F 55.9 °F 30.1 in West 0.9 mph 1 mph 91% 0 in 0 W/m2
01:21 58.5 °F 55.8 °F 30.1 in Calm   1 mph 91% 0 in 0 W/m2
01:26 58.3 °F 55.6 °F 30.1 in Calm   1 mph 91% 0 in 0 W/m2
01:31 58.3 °F 55.9 °F 30.1 in West 0.9 mph 1 mph 92% 0 in 0 W/m2
01:36 58.1 °F 55.8 °F 30.1 in Calm   1 mph 92% 0 in 0 W/m2
01:41 57.9 °F 55.6 °F 30.1 in Calm     92% 0 in 0 W/m2
01:46 57.7 °F 55.4 °F 30.1 in Calm   1 mph 92% 0 in 0 W/m2
01:51 57.7 °F 55.4 °F 30.1 in West 0.9 mph 2 mph 92% 0 in 0 W/m2
01:56 57.7 °F 55.4 °F 30.1 in West 0.9 mph 2 mph 92% 0 in 0 W/m2
02:01 57.7 °F 55.8 °F 30.1 in Calm   1 mph 93% 0 in 0 W/m2
02:07 57.7 °F 55.8 °F 30.1 in Calm   2 mph 93% 0 in 0 W/m2
02:12 57.7 °F 55.8 °F 30.1 in West 0.9 mph 1 mph 93% 0 in 0 W/m2
02:17 57.7 °F 55.8 °F 30.1 in Calm   2 mph 93% 0 in 0 W/m2
02:22 57.9 °F 55.9 °F 30.1 in West 0.9 mph 2 mph 93% 0 in 0 W/m2
02:27 57.9 °F 55.9 °F 30.1 in Calm     93% 0 in 0 W/m2
02:32 58.1 °F 55.8 °F 30.1 in West 0.9 mph 2 mph 92% 0 in 0 W/m2
02:37 58.3 °F 55.9 °F 30.1 in Calm   1 mph 92% 0 in 0 W/m2
02:42 58.3 °F 55.9 °F 30.1 in Calm   2 mph 92% 0 in 0 W/m2
02:47 58.5 °F 56.1 °F 30.1 in West 0.9 mph 3 mph 92% 0 in 0 W/m2
02:52 58.5 °F 56.1 °F 30.1 in WSW 2.9 mph 4 mph 92% 0 in 0 W/m2
02:57 58.6 °F 55.9 °F 30.1 in Calm   2 mph 91% 0 in 0 W/m2
03:02 58.8 °F 56.1 °F 30.1 in WSW 0.9 mph 4 mph 91% 0 in 0 W/m2
03:07 58.8 °F 56.1 °F 30.1 in Calm     91% 0 in 0 W/m2
03:12 59 °F 56.3 °F 30.1 in Calm   3 mph 91% 0 in 0 W/m2
03:17 58.8 °F 56.1 °F 30.1 in Calm     91% 0 in 0 W/m2
03:22 58.8 °F 56.1 °F 30.1 in Calm     91% 0 in 0 W/m2
03:27 58.6 °F 55.9 °F 30.1 in Calm     91% 0 in 0 W/m2
03:32 58.5 °F 55.8 °F 30.1 in Calm   2 mph 91% 0 in 0 W/m2
03:37 58.3 °F 55.6 °F 30.1 in Calm     91% 0 in 0 W/m2
03:42 58.3 °F 55.6 °F 30.1 in Calm   2 mph 91% 0 in 0 W/m2
03:47 58.1 °F 55.8 °F 30.1 in Calm     92% 0 in 0 W/m2
03:52 58.1 °F 55.8 °F 30.1 in Calm     92% 0 in 0 W/m2
03:57 58.1 °F 55.8 °F 30.1 in Calm     92% 0 in 0 W/m2
04:02 58.1 °F 55.8 °F 30.1 in Calm   1 mph 92% 0 in 0 W/m2
04:07 58.1 °F 55.8 °F 30.1 in Calm     92% 0 in 0 W/m2
04:12 58.1 °F 55.8 °F 30.1 in Calm     92% 0 in 0 W/m2
04:17 58.3 °F 55.9 °F 30.1 in Calm     92% 0 in 0 W/m2
04:22 58.3 °F 55.9 °F 30.1 in Calm     92% 0 in 0 W/m2
04:27 58.3 °F 55.9 °F 30.1 in Calm     92% 0 in 0 W/m2
04:32 58.3 °F 55.6 °F 30.1 in Calm     91% 0 in 0 W/m2
04:37 57.9 °F 55.2 °F 30.1 in Calm     91% 0 in 0 W/m2
04:42 57.7 °F 55.2 °F 30.1 in Calm     91% 0 in 0 W/m2
04:47 57.6 °F 55 °F 30.1 in Calm     91% 0 in 0 W/m2
04:52 57.4 °F 55 °F 30.1 in Calm     92% 0 in 0 W/m2
04:57 57 °F 54.7 °F 30.1 in Calm     92% 0 in 0 W/m2
05:02 56.8 °F 54.5 °F 30.1 in Calm     92% 0 in 0 W/m2
05:07 56.7 °F 54.3 °F 30.1 in Calm     92% 0 in 0 W/m2
05:12 56.7 °F 54.7 °F 30.1 in Calm   3 mph 93% 0 in 0 W/m2
05:17 56.7 °F 54.7 °F 30.1 in Calm     93% 0 in 0 W/m2
05:22 56.7 °F 54.7 °F 30.1 in Calm   2 mph 93% 0 in 0 W/m2
05:27 56.7 °F 54.7 °F 30.1 in ESE 0.9 mph 1 mph 93% 0 in 0 W/m2
05:32 56.5 °F 54.5 °F 30.1 in Calm   1 mph 93% 0 in 0 W/m2
05:37 56.5 °F 54.5 °F 30.1 in Calm     93% 0 in 0 W/m2
05:42 56.5 °F 54.5 °F 30.1 in East 2 mph 4 mph 93% 0 in 0 W/m2
05:47 56.5 °F 54.9 °F 30.1 in East 0.9 mph 1 mph 94% 0 in 0 W/m2
05:52 56.5 °F 54.9 °F 30.1 in Calm     94% 0 in 0 W/m2
05:57 56.5 °F 54.9 °F 30.1 in East 0.9 mph 2 mph 94% 0 in 0 W/m2
06:02 56.5 °F 54.9 °F 30.1 in East 2 mph 2 mph 94% 0 in 0 W/m2
06:12 56.3 °F 54.7 °F 30.1 in Calm     94% 0 in 0 W/m2
06:17 56.1 °F 54.5 °F 30.1 in Calm     94% 0 in 0 W/m2
06:22 56.1 °F 54.5 °F 30.1 in Calm     94% 0 in 0 W/m2
06:27 56.1 °F 54.5 °F 30.1 in Calm     94% 0 in 0 W/m2
06:32 55.9 °F 54.3 °F 30.1 in Calm     94% 0 in 0 W/m2
06:38 55.9 °F 54.3 °F 30.1 in Calm     94% 0 in 0 W/m2
06:43 55.9 °F 54.3 °F 30.2 in Calm     94% 0 in 0 W/m2
06:48 55.9 °F 54.3 °F 30.2 in ENE 2.9 mph 4 mph 94% 0 in 0 W/m2
06:58 56.5 °F 54.9 °F 30.2 in Calm   1 mph 94% 0 in 5 W/m2
07:13 56.7 °F 55 °F 30.2 in Calm     94% 0 in 16 W/m2
07:23 56.7 °F 54.7 °F 30.2 in Calm     93% 0 in 21 W/m2
07:28 56.7 °F 55 °F 30.2 in Calm   1 mph 94% 0 in 25 W/m2
07:33 56.7 °F 54.7 °F 30.2 in East 2 mph 6 mph 93% 0 in 26 W/m2
07:38 56.8 °F 55.2 °F 30.2 in NW 0.9 mph 3 mph 94% 0 in 28 W/m2
07:43 56.8 °F 54.9 °F 30.2 in SE 0.9 mph 6 mph 93% 0 in 33 W/m2
07:48 57 °F 55 °F 30.2 in SE 2.9 mph 3 mph 93% 0 in 37 W/m2
07:53 57.2 °F 55.2 °F 30.2 in NNW 2 mph 3 mph 93% 0 in 47 W/m2
07:58 57.4 °F 55 °F 30.2 in ENE 0.9 mph 2 mph 92% 0 in 40 W/m2
08:03 57.4 °F 55 °F 30.2 in Calm   3 mph 92% 0 in 33 W/m2
08:08 57.6 °F 55.2 °F 30.2 in Calm   1 mph 92% 0 in 49 W/m2
08:13 57.7 °F 55.4 °F 30.2 in SE 2 mph 2 mph 92% 0 in 63 W/m2
08:18 57.9 °F 55.2 °F 30.2 in NE 0.9 mph 2 mph 91% 0 in 72 W/m2
08:23 58.3 °F 55.6 °F 30.2 in NE 2 mph 4 mph 91% 0 in 67 W/m2
08:43 58.5 °F 55.6 °F 30.2 in Calm   2 mph 90% 0 in 84 W/m2
08:48 58.5 °F 55.6 °F 30.2 in WNW 2.9 mph 3 mph 90% 0 in 79 W/m2
08:53 58.6 °F 55.4 °F 30.2 in NE 0.9 mph 4 mph 89% 0 in 74 W/m2
08:58 58.6 °F 55.4 °F 30.2 in East 2 mph 3 mph 89% 0 in 84 W/m2
09:03 58.8 °F 55.6 °F 30.2 in Calm   1 mph 89% 0 in 100 W/m2
09:08 58.8 °F 55.6 °F 30.2 in Calm   2 mph 89% 0 in 107 W/m2
09:13 59.2 °F 55.9 °F 30.2 in WNW 0.9 mph 2 mph 89% 0 in 111 W/m2
09:18 59.2 °F 55.6 °F 30.2 in Calm   3 mph 88% 0 in 118 W/m2
09:23 59.4 °F 55.8 °F 30.2 in WNW 2 mph 3 mph 88% 0 in 114 W/m2
09:28 59.4 °F 55.4 °F 30.2 in NE 2.9 mph 7 mph 87% 0 in 128 W/m2
09:33 59.4 °F 55.4 °F 30.2 in West 2 mph 3 mph 87% 0 in 148 W/m2
09:38 59.5 °F 55.6 °F 30.2 in WNW 2 mph 3 mph 87% 0 in 155 W/m2
09:43 59.7 °F 55.8 °F 30.2 in NNW 2.9 mph 3 mph 87% 0 in 185 W/m2
09:48 59.9 °F 55.9 °F 30.2 in Calm   3 mph 87% 0 in 281 W/m2
09:53 60.3 °F 56.3 °F 30.2 in NW 0.9 mph 3 mph 87% 0 in 230 W/m2
09:58 60.4 °F 56.3 °F 30.2 in Calm   3 mph 86% 0 in 392 W/m2
10:03 61.2 °F 57 °F 30.2 in NE 0.9 mph 4 mph 86% 0 in 436 W/m2
10:08 62.1 °F 57.6 °F 30.2 in ENE 0.9 mph 4 mph 85% 0 in 448 W/m2
10:13 62.8 °F 57.6 °F 30.2 in NNE 2.9 mph 4 mph 83% 0 in 483 W/m2
10:18 63.3 °F 57.4 °F 30.2 in ENE 2.9 mph 8 mph 81% 0 in 492 W/m2
10:23 63.9 °F 57.6 °F 30.2 in SE 4 mph 9 mph 80% 0 in 587 W/m2
10:28 64.2 °F 57.6 °F 30.2 in ESE 2.9 mph 6 mph 79% 0 in 626 W/m2
10:33 64.8 °F 58.1 °F 30.2 in East 2 mph 8 mph 79% 0 in 636 W/m2
10:38 64.9 °F 57.6 °F 30.2 in ENE 4 mph 9 mph 77% 0 in 207 W/m2
10:43 64.6 °F 56.8 °F 30.2 in East 2.9 mph 10 mph 76% 0 in 269 W/m2
10:48 64.2 °F 56.8 °F 30.2 in West 2 mph 9 mph 77% 0 in 230 W/m2
10:53 64 °F 56.7 °F 30.2 in ENE 2.9 mph 4 mph 77% 0 in 257 W/m2
10:58 64 °F 56.7 °F 30.2 in East 0.9 mph 2 mph 77% 0 in 394 W/m2
11:08 64.4 °F 57.4 °F 30.2 in North 4 mph 4 mph 78% 0 in 271 W/m2
11:13 64.4 °F 56.7 °F 30.2 in West 0.9 mph 10 mph 76% 0 in 188 W/m2
11:18 64.6 °F 57.2 °F 30.2 in North 2.9 mph 6 mph 77% 0 in 188 W/m2
11:23 64.6 °F 56.5 °F 30.2 in East 0.9 mph 9 mph 75% 0 in 192 W/m2
11:28 64.6 °F 56.5 °F 30.2 in West 2.9 mph 5 mph 75% 0 in 255 W/m2
11:33 64.8 °F 56.3 °F 30.2 in NNW 2.9 mph 4 mph 74% 0 in 223 W/m2
11:38 64.9 °F 56.1 °F 30.2 in ENE 0.9 mph 3 mph 73% 0 in 197 W/m2
11:43 65.1 °F 56.3 °F 30.2 in West 2.9 mph 4 mph 73% 0 in 267 W/m2
11:48 65.5 °F 56.3 °F 30.2 in ENE 4.9 mph 7 mph 72% 0 in 195 W/m2
11:53 66 °F 57.2 °F 30.2 in NNW 4 mph 4 mph 73% 0 in 195 W/m2
11:58 66.7 °F 57.4 °F 30.2 in Calm   7 mph 72% 0 in 571 W/m2
12:03 67.1 °F 56.7 °F 30.2 in SSE 0.9 mph 6 mph 69% 0 in 387 W/m2
12:08 66.9 °F 56.5 °F 30.2 in NW 0.9 mph 5 mph 69% 0 in 345 W/m2
12:13 67.1 °F 56.1 °F 30.2 in NE 2 mph 8 mph 68% 0 in 330 W/m2
12:18 67.3 °F 56.3 °F 30.2 in East 4 mph 8 mph 68% 0 in 346 W/m2
12:23 67.3 °F 56.3 °F 30.2 in WNW 4 mph 4 mph 68% 0 in 373 W/m2
12:28 67.5 °F 56.5 °F 30.2 in NE 2.9 mph 10 mph 68% 0 in 380 W/m2
12:33 67.6 °F 55.9 °F 30.2 in ESE 4 mph 10 mph 66% 0 in 381 W/m2
12:39 67.6 °F 55.4 °F 30.2 in East 2 mph 7 mph 65% 0 in 383 W/m2
12:44 67.6 °F 55.9 °F 30.2 in East 2 mph 7 mph 66% 0 in 429 W/m2
12:49 68 °F 55.4 °F 30.2 in SSE 0.9 mph 8 mph 64% 0 in 445 W/m2
12:54 68.2 °F 55.9 °F 30.2 in NE 4 mph 7 mph 65% 0 in 352 W/m2
12:59 68.2 °F 55.6 °F 30.2 in NW 4.9 mph 5 mph 64% 0 in 559 W/m2
13:04 68.4 °F 55.8 °F 30.2 in SE 0.9 mph 6 mph 64% 0 in 418 W/m2
13:09 68.4 °F 56.1 °F 30.2 in ESE 2 mph 9 mph 65% 0 in 239 W/m2
13:14 68.2 °F 55.9 °F 30.2 in East 6.9 mph 8 mph 65% 0 in 264 W/m2
13:19 68 °F 56.3 °F 30.2 in East 2.9 mph 9 mph 66% 0 in 334 W/m2
13:24 68.4 °F 57.4 °F 30.2 in NNE 2 mph 8 mph 68% 0 in 598 W/m2
13:29 68.7 °F 56.5 °F 30.2 in ENE 6 mph 11 mph 65% 0 in 494 W/m2
13:34 68.9 °F 55.8 °F 30.2 in ENE 4.9 mph 9 mph 63% 0 in 352 W/m2
13:44 69.1 °F 56.5 °F 30.2 in ESE 4.9 mph 7 mph 64% 0 in 476 W/m2
13:49 69.4 °F 55.9 °F 30.2 in East 0.9 mph 6 mph 62% 0 in 497 W/m2
13:54 69.6 °F 55.6 °F 30.2 in NE 6 mph 9 mph 61% 0 in 526 W/m2
13:59 70 °F 55 °F 30.2 in ENE 0.9 mph 13 mph 59% 0 in 875 W/m2
14:04 70.2 °F 55.2 °F 30.2 in SE 2.9 mph 7 mph 59% 0 in 867 W/m2
14:09 70.2 °F 54.7 °F 30.2 in NE 2 mph 13 mph 58% 0 in 812 W/m2
14:14 70 °F 54.5 °F 30.2 in NE 2.9 mph 9 mph 58% 0 in 835 W/m2
14:19 70.3 °F 55.4 °F 30.2 in NW 2.9 mph 12 mph 59% 0 in 882 W/m2
14:24 70.5 °F 55.6 °F 30.2 in NW 2.9 mph 7 mph 59% 0 in 967 W/m2
14:29 70.9 °F 55.4 °F 30.2 in ENE 0.9 mph 4 mph 58% 0 in 575 W/m2
14:34 70.9 °F 55.8 °F 30.2 in ENE 2.9 mph 8 mph 59% 0 in 309 W/m2
14:39 70.5 °F 55.6 °F 30.2 in NE 0.9 mph 5 mph 59% 0 in 258 W/m2
14:44 70.2 °F 55.6 °F 30.2 in NE 2.9 mph 6 mph 60% 0 in 283 W/m2
14:49 69.6 °F 55.6 °F 30.2 in ENE 2.9 mph 7 mph 61% 0 in 158 W/m2
14:54 69.3 °F 56.1 °F 30.2 in North 0.9 mph 3 mph 63% 0 in 135 W/m2
14:59 69.3 °F 56.1 °F 30.2 in NW 2 mph 4 mph 63% 0 in 156 W/m2
15:09 68.7 °F 56.5 °F 30.2 in North 0.9 mph 3 mph 65% 0 in 202 W/m2
15:14 69.1 °F 55.6 °F 30.2 in ENE 2 mph 10 mph 62% 0 in 738 W/m2
15:19 69.6 °F 54.7 °F 30.2 in NE 2.9 mph 6 mph 59% 0 in 868 W/m2
15:24 70.5 °F 55.6 °F 30.2 in ENE 2.9 mph 6 mph 59% 0 in 686 W/m2
15:29 70.9 °F 54.3 °F 30.2 in ENE 2 mph 8 mph 56% 0 in 390 W/m2
15:34 70.9 °F 54.9 °F 30.2 in ENE 2 mph 5 mph 57% 0 in 445 W/m2
15:39 70.7 °F 55.2 °F 30.2 in ENE 2 mph 3 mph 58% 0 in 285 W/m2
15:44 70.5 °F 54.5 °F 30.2 in East 6.9 mph 9 mph 57% 0 in 216 W/m2
15:49 70 °F 54.5 °F 30.2 in NNW 2.9 mph 6 mph 58% 0 in 142 W/m2
15:54 69.4 °F 54.9 °F 30.2 in SE 0.9 mph 3 mph 60% 0 in 113 W/m2
15:59 69.4 °F 55.4 °F 30.2 in North 6 mph 9 mph 61% 0 in 127 W/m2
16:04 69.3 °F 55.2 °F 30.2 in SSW 2 mph 4 mph 61% 0 in 174 W/m2
16:09 69.3 °F 55.2 °F 30.2 in South 2 mph 9 mph 61% 0 in 257 W/m2
16:14 69.4 °F 55.4 °F 30.2 in WNW 4 mph 4 mph 61% 0 in 327 W/m2
16:19 69.8 °F 54.9 °F 30.2 in NNE 2 mph 7 mph 59% 0 in 425 W/m2
16:24 70.2 °F 55.6 °F 30.2 in Calm   4 mph 60% 0 in 318 W/m2
16:29 70.3 °F 54.3 °F 30.2 in NNE 0.9 mph 3 mph 57% 0 in 455 W/m2
16:34 70.7 °F 53.8 °F 30.2 in SSE 4 mph 4 mph 55% 0 in 524 W/m2
16:39 70.9 °F 54 °F 30.2 in ESE 2 mph 7 mph 55% 0 in 529 W/m2
16:44 70.5 °F 53.1 °F 30.2 in East 2.9 mph 5 mph 54% 0 in 302 W/m2
16:49 70.3 °F 54.3 °F 30.2 in NE 2 mph 6 mph 57% 0 in 230 W/m2
16:54 70.2 °F 54.1 °F 30.2 in SSE 2 mph 4 mph 57% 0 in 167 W/m2
16:59 70 °F 54 °F 30.2 in NNE 4 mph 10 mph 57% 0 in 174 W/m2
17:04 69.8 °F 54 °F 30.2 in NNE 4.9 mph 7 mph 57% 0 in 262 W/m2
17:09 70 °F 54.5 °F 30.2 in NE 2.9 mph 10 mph 58% 0 in 654 W/m2
17:14 70.3 °F 54.9 °F 30.2 in NE 2 mph 5 mph 58% 0 in 230 W/m2
17:19 70.5 °F 55.6 °F 30.2 in ESE 2.9 mph 8 mph 59% 0 in 527 W/m2
17:24 70.2 °F 55.6 °F 30.2 in ENE 4.9 mph 13 mph 60% 0 in 144 W/m2
17:29 69.6 °F 55.6 °F 30.2 in NE 0.9 mph 6 mph 61% 0 in 116 W/m2
17:34 69.4 °F 56.3 °F 30.2 in North 2.9 mph 13 mph 63% 0 in 227 W/m2
17:39 69.6 °F 56.5 °F 30.2 in NNW 2 mph 4 mph 63% 0 in 404 W/m2
17:44 69.8 °F 55.8 °F 30.2 in West 2 mph 4 mph 61% 0 in 425 W/m2
17:49 70.2 °F 56.1 °F 30.2 in SW 2.9 mph 4 mph 61% 0 in 417 W/m2
17:54 70.3 °F 54.9 °F 30.2 in ENE 0.9 mph 4 mph 58% 0 in 371 W/m2
17:59 70.7 °F 55.2 °F 30.2 in Calm   6 mph 58% 0 in 338 W/m2
18:04 71.1 °F 55.6 °F 30.2 in WNW 2.9 mph 8 mph 58% 0 in 332 W/m2
18:09 71.1 °F 55 °F 30.2 in West 2.9 mph 6 mph 57% 0 in 336 W/m2
18:14 71.1 °F 55.6 °F 30.2 in North 0.9 mph 6 mph 58% 0 in 287 W/m2
18:19 71.1 °F 55.6 °F 30.2 in NW 0.9 mph 3 mph 58% 0 in 334 W/m2
18:24 71.2 °F 56.7 °F 30.2 in Calm   3 mph 60% 0 in 332 W/m2
18:29 71.4 °F 55.9 °F 30.2 in ENE 2 mph 3 mph 58% 0 in 320 W/m2
18:34 71.4 °F 56.3 °F 30.2 in NE 2 mph 4 mph 59% 0 in 250 W/m2
18:39 71.2 °F 55.8 °F 30.2 in East 2 mph 4 mph 58% 0 in 202 W/m2
18:44 70.9 °F 54.3 °F 30.2 in NNW 0.9 mph 2 mph 56% 0 in 72 W/m2
18:49 70.2 °F 53.2 °F 30.2 in NNW 2 mph 4 mph 55% 0 in 179 W/m2
18:54 70 °F 53.1 °F 30.2 in NNW 0.9 mph 2 mph 55% 0 in 165 W/m2
18:59 70 °F 53.1 °F 30.2 in Calm   3 mph 55% 0 in 134 W/m2
19:04 70 °F 53.1 °F 30.2 in NE 0.9 mph 3 mph 55% 0 in 155 W/m2
19:09 70 °F 54 °F 30.2 in Calm   1 mph 57% 0 in 158 W/m2
19:14 70 °F 54 °F 30.2 in SE 2 mph 3 mph 57% 0 in 186 W/m2
19:19 69.8 °F 53.4 °F 30.2 in ENE 2.9 mph 6 mph 56% 0 in 171 W/m2
19:24 69.6 °F 53.8 °F 30.2 in Calm   4 mph 57% 0 in 134 W/m2
19:29 69.6 °F 54.1 °F 30.2 in NNE 6.9 mph 7 mph 58% 0 in 109 W/m2
19:34 69.3 °F 53.8 °F 30.2 in SW 0.9 mph 4 mph 58% 0 in 90 W/m2
19:39 68.7 °F 53.8 °F 30.2 in NW 2 mph 7 mph 59% 0 in 69 W/m2
19:44 68.2 °F 53.8 °F 30.2 in NE 2.9 mph 5 mph 60% 0 in 37 W/m2
19:49 67.8 °F 53.4 °F 30.2 in NE 0.9 mph 3 mph 60% 0 in 25 W/m2
19:54 67.3 °F 53.4 °F 30.2 in SW 0.9 mph 4 mph 61% 0 in 21 W/m2
19:59 66.7 °F 52.9 °F 30.2 in NE 2.9 mph 6 mph 61% 0 in 18 W/m2
20:04 66.4 °F 52.9 °F 30.2 in North 0.9 mph 5 mph 62% 0 in 14 W/m2
20:09 66 °F 53.1 °F 30.2 in Calm   2 mph 63% 0 in 11 W/m2
20:14 65.7 °F 53.2 °F 30.2 in NE 2.9 mph 5 mph 64% 0 in 9 W/m2
20:19 65.5 °F 53.4 °F 30.2 in Calm   2 mph 65% 0 in 5 W/m2
20:24 65.1 °F 53.4 °F 30.2 in Calm   5 mph 66% 0 in 0 W/m2
20:29 64.8 °F 53.1 °F 30.2 in Calm   3 mph 66% 0 in 0 W/m2
20:34 64.4 °F 53.2 °F 30.2 in Calm   1 mph 67% 0 in 0 W/m2
20:39 64 °F 52.9 °F 30.2 in NNW 0.9 mph 1 mph 67% 0 in 0 W/m2
20:44 64 °F 52.9 °F 30.2 in Calm   2 mph 67% 0 in 0 W/m2
20:49 63.9 °F 53.1 °F 30.2 in Calm   4 mph 68% 0 in 0 W/m2
20:54 63.7 °F 52.9 °F 30.2 in SSE 0.9 mph 2 mph 68% 0 in 0 W/m2
21:00 63.7 °F 52.9 °F 30.2 in NNE 0.9 mph 1 mph 68% 0 in 0 W/m2
21:05 63.3 °F 53.1 °F 30.2 in Calm   2 mph 69% 0 in 0 W/m2
21:10 63 °F 52.7 °F 30.2 in WNW 2 mph 3 mph 69% 0 in 0 W/m2
21:15 63 °F 53.1 °F 30.2 in WNW 2 mph 2 mph 70% 0 in 0 W/m2
21:20 62.8 °F 53.2 °F 30.2 in Calm   1 mph 71% 0 in 0 W/m2
21:25 62.2 °F 53.1 °F 30.2 in Calm   1 mph 72% 0 in 0 W/m2
21:30 61.9 °F 53.1 °F 30.2 in Calm   2 mph 73% 0 in 0 W/m2
21:35 61.3 °F 53.1 °F 30.2 in WNW 0.9 mph 1 mph 74% 0 in 0 W/m2
21:40 61 °F 52.7 °F 30.2 in Calm   2 mph 74% 0 in 0 W/m2
21:45 60.6 °F 52.7 °F 30.2 in Calm   1 mph 75% 0 in 0 W/m2
21:50 60.3 °F 52.3 °F 30.2 in Calm   2 mph 75% 0 in 0 W/m2
21:55 60.1 °F 52.5 °F 30.2 in WNW 0.9 mph 1 mph 76% 0 in 0 W/m2
22:00 59.9 °F 52 °F 30.2 in NNE 0.9 mph 3 mph 75% 0 in 0 W/m2
22:05 59.9 °F 52 °F 30.2 in Calm   1 mph 75% 0 in 0 W/m2
22:10 59.9 °F 52 °F 30.2 in East 2 mph 2 mph 75% 0 in 0 W/m2
22:15 59.7 °F 52.2 °F 30.2 in ESE 0.9 mph 2 mph 76% 0 in 0 W/m2
22:20 59.7 °F 52.5 °F 30.2 in East 0.9 mph 1 mph 77% 0 in 0 W/m2
22:25 59.5 °F 52.3 °F 30.2 in East 0.9 mph 1 mph 77% 0 in 0 W/m2
22:30 59.4 °F 52.2 °F 30.2 in East 0.9 mph 1 mph 77% 0 in 0 W/m2
22:35 59.4 °F 52.2 °F 30.2 in SE 3 mph 3 mph 77% 0 in 0 W/m2
22:40 59.5 °F 52.3 °F 30.2 in Calm     77% 0 in 0 W/m2
22:45 59.5 °F 52.3 °F 30.2 in SE 3 mph 3 mph 77% 0 in 0 W/m2
22:50 59.5 °F 52.3 °F 30.2 in Calm   1 mph 77% 0 in 0 W/m2
22:55 59.4 °F 52.2 °F 30.2 in Calm   1 mph 77% 0 in 0 W/m2
23:00 59.4 °F 52.2 °F 30.3 in ESE 0.9 mph 2 mph 77% 0 in 0 W/m2
23:05 59.2 °F 52.3 °F 30.2 in Calm   2 mph 78% 0 in 0 W/m2
23:10 59 °F 52.5 °F 30.2 in ESE 0.9 mph 2 mph 79% 0 in 0 W/m2
23:15 58.6 °F 52.2 °F 30.2 in SSE 4 mph 4 mph 79% 0 in 0 W/m2
23:20 58.6 °F 52.2 °F 30.2 in SSE 0.9 mph 1 mph 79% 0 in 0 W/m2
23:25 58.6 °F 52.5 °F 30.2 in SE 2 mph 2 mph 80% 0 in 0 W/m2
23:30 58.6 °F 52.5 °F 30.3 in Calm     80% 0 in 0 W/m2
23:35 58.6 °F 52.5 °F 30.3 in Calm     80% 0 in 0 W/m2
23:40 58.5 °F 52.3 °F 30.3 in Calm   2 mph 80% 0 in 0 W/m2
23:45 58.5 °F 52.7 °F 30.3 in Calm     81% 0 in 0 W/m2
23:50 58.3 °F 52.5 °F 30.3 in Calm   1 mph 81% 0 in 0 W/m2
23:55 57.9 °F 52.2 °F 30.3 in NNE 0.9 mph 2 mph 81% 0 in 0 W/m2
Juneau County Weather
Compliments of Weather Underground - 4 mb